Alaska, Minnesota
Current Conditions -  °F | °C
As of 9:12 AM on Friday 19 Dec 2014 (Local Time) from KBJI Reporting Station
Overcast Overcast  
Wind Chill:   Ceiling: 900
Heat Index: 19°   Visibility: 7mi
Dew Point: 17°   Wind: 9mph
Humidity: 89%   Direction: 140°SE
Pressure: 30.12"   Gusts: NA
Location:  47.7369°N, 94.9947°W
Report Text: KBJI 191512Z AUTO 14008KT 7SM OVC009 M07/M08 A3012 RMK AO2 T10701085
Loading
Personal Weather Stations






























Interactive Weather Map New forecast layout! Learn more

10-Day Weather Forecast

Advertisements
Track Severe Weather on mobile